Aérodrome :
LOGIN :

S'inscrire | Disclaimer

   EN    FR    IT 

 










Légende :    VFR   VFR Marginal   IFR   IFR Intensif   IFR Très Intensif
Visi : 
Plafond : 
>= 8 km
>= 3000ft
5 à 8 km
1000 à 3000 ft
1500m à 5 km
500 à 1000 ft
800 à 1500m
200 à 500 ft
< 800m
< 200 ft
Symboles :   Orages  Brouillard  Fortes neiges  Fortes précipitations  Vent > 20 kt
SIGMETs :   Divers  Orages  Givrage  Turbulence  Onde Orograph.  Cendres Volcan.






- Altitude de l'aérodrome : 1 ft


EGCK - Caernarfon

DERNIER METAR :
  • 271620Z 28015KT 9999 SCT030 BKN048 07/00 Q1009

METARs EXPIRÉS :
  • 271550Z 30014KT 9999 BKN035 07/00 Q1009
  • 271520Z 29015KT 9999 SCT028 BKN038 07/00 Q1008
  • 271450Z 30017KT 9999 SCT025 BKN035 07/00 Q1008
  • 271420Z 30016KT 9999 FEW025 BKN032 07/01 Q1007
  • 271350Z 30016KT 9999 SCT024 BKN032 07/01 Q1007

TAF TAF EGCK
Valide du 27 à 15h jusqu'au 28 à 00h UTC


271356Z 2715/2724 29015KT 9999 FEW020 BKN035
PROB30
TEMPO 2715/2718 28017G27KT
BECMG 2721/2724 20008KT



MET'MAP, la Météo Aéronautique d'un coup d'oeil ! - Copyright ORBIFLY Décembre 2007 - Disclaimer

ORBIFLY MET'MAP TEAM :

Programmation & Développement : Alexandra Zaïnal
Sur une idée originale de : Baudouin d'Aumeries
Assistance à la programmation : Marc-Olivier Méhu
Soutien technique & logistique : Manuel Goepfert

Contact : metmap@orbifly.com




SOURCES & CREDITS :

   NOAA